<?xml version="1.0" encoding="UTF-8" standalone="no" ?>
<gpx xmlns="http://www.topografix.com/GPX/1/1" xmlns:xsi="http://www.w3.org/2001/XMLSchema-instance" xsi:schemaLocation="http://www.topografix.com/GPX/1/1 http://www.topografix.com/GPX/1/1/gpx.xsd" version="1.1" creator="VisuGPX - https://www.visugpx.com">
  <metadata>
    <name>L Aulp Du Seuil</name>
    <desc><![CDATA[grp_trc:[nouvelles]]]></desc>
  </metadata>
  <trk>
    <name><![CDATA[14 juil. 2021 à 19:40:59]]></name>
    <cmt><![CDATA[14 juil. 2021 à 19:40:59]]></cmt>
    <trkseg>
      <trkpt lat="45.13882" lon="6.6208">
        <ele>2169</ele>
        <time>2021-07-14T17:40:59Z</time>
      </trkpt>
      <trkpt lat="45.13883" lon="6.62078">
        <ele>2187</ele>
        <time>2021-07-14T17:41:00Z</time>
      </trkpt>
      <trkpt lat="45.13884" lon="6.62074">
        <ele>2207</ele>
        <time>2021-07-14T17:41:07Z</time>
      </trkpt>
      <trkpt lat="45.13883" lon="6.62074">
        <ele>2207</ele>
        <time>2021-07-14T17:41:08Z</time>
      </trkpt>
      <trkpt lat="45.13875" lon="6.62073">
        <ele>2209</ele>
        <time>2021-07-14T17:41:21Z</time>
      </trkpt>
      <trkpt lat="45.1387" lon="6.62073">
        <ele>2210</ele>
        <time>2021-07-14T17:41:25Z</time>
      </trkpt>
      <trkpt lat="45.13865" lon="6.62071">
        <ele>2211</ele>
        <time>2021-07-14T17:41:33Z</time>
      </trkpt>
      <trkpt lat="45.13863" lon="6.62067">
        <ele>2211</ele>
        <time>2021-07-14T17:41:38Z</time>
      </trkpt>
      <trkpt lat="45.13857" lon="6.62055">
        <ele>2209</ele>
        <time>2021-07-14T17:41:50Z</time>
      </trkpt>
      <trkpt lat="45.13841" lon="6.62036">
        <ele>2213</ele>
        <time>2021-07-14T17:42:18Z</time>
      </trkpt>
      <trkpt lat="45.1384" lon="6.6203">
        <ele>2214</ele>
        <time>2021-07-14T17:42:24Z</time>
      </trkpt>
      <trkpt lat="45.13831" lon="6.62009">
        <ele>2217</ele>
        <time>2021-07-14T17:42:47Z</time>
      </trkpt>
      <trkpt lat="45.13826" lon="6.62002">
        <ele>2219</ele>
        <time>2021-07-14T17:42:59Z</time>
      </trkpt>
      <trkpt lat="45.13825" lon="6.61996">
        <ele>2219</ele>
        <time>2021-07-14T17:43:03Z</time>
      </trkpt>
      <trkpt lat="45.13819" lon="6.61985">
        <ele>2220</ele>
        <time>2021-07-14T17:43:14Z</time>
      </trkpt>
      <trkpt lat="45.13815" lon="6.61982">
        <ele>2220</ele>
        <time>2021-07-14T17:43:21Z</time>
      </trkpt>
      <trkpt lat="45.13812" lon="6.61978">
        <ele>2223</ele>
        <time>2021-07-14T17:43:27Z</time>
      </trkpt>
      <trkpt lat="45.13808" lon="6.61974">
        <ele>2222</ele>
        <time>2021-07-14T17:43:31Z</time>
      </trkpt>
      <trkpt lat="45.13804" lon="6.61972">
        <ele>2223</ele>
        <time>2021-07-14T17:43:39Z</time>
      </trkpt>
      <trkpt lat="45.13799" lon="6.61966">
        <ele>2223</ele>
        <time>2021-07-14T17:43:51Z</time>
      </trkpt>
      <trkpt lat="45.13788" lon="6.61965">
        <ele>2226</ele>
        <time>2021-07-14T17:44:07Z</time>
      </trkpt>
      <trkpt lat="45.13784" lon="6.61963">
        <ele>2225</ele>
        <time>2021-07-14T17:44:15Z</time>
      </trkpt>
      <trkpt lat="45.1378" lon="6.61961">
        <ele>2226</ele>
        <time>2021-07-14T17:44:20Z</time>
      </trkpt>
      <trkpt lat="45.13775" lon="6.61963">
        <ele>2226</ele>
        <time>2021-07-14T17:44:27Z</time>
      </trkpt>
      <trkpt lat="45.1377" lon="6.61974">
        <ele>2228</ele>
        <time>2021-07-14T17:45:03Z</time>
      </trkpt>
      <trkpt lat="45.1377" lon="6.61993">
        <ele>2230</ele>
        <time>2021-07-14T17:45:21Z</time>
      </trkpt>
      <trkpt lat="45.13766" lon="6.61994">
        <ele>2231</ele>
        <time>2021-07-14T17:45:25Z</time>
      </trkpt>
      <trkpt lat="45.13762" lon="6.61997">
        <ele>2231</ele>
        <time>2021-07-14T17:45:29Z</time>
      </trkpt>
      <trkpt lat="45.13759" lon="6.61998">
        <ele>2232</ele>
        <time>2021-07-14T17:45:33Z</time>
      </trkpt>
      <trkpt lat="45.13752" lon="6.61997">
        <ele>2233</ele>
        <time>2021-07-14T17:45:46Z</time>
      </trkpt>
      <trkpt lat="45.13744" lon="6.61995">
        <ele>2234</ele>
        <time>2021-07-14T17:45:58Z</time>
      </trkpt>
      <trkpt lat="45.13741" lon="6.61991">
        <ele>2238</ele>
        <time>2021-07-14T17:46:02Z</time>
      </trkpt>
      <trkpt lat="45.1373" lon="6.61991">
        <ele>2237</ele>
        <time>2021-07-14T17:46:15Z</time>
      </trkpt>
      <trkpt lat="45.13723" lon="6.61993">
        <ele>2242</ele>
        <time>2021-07-14T17:46:28Z</time>
      </trkpt>
      <trkpt lat="45.13717" lon="6.61994">
        <ele>2239</ele>
        <time>2021-07-14T17:46:40Z</time>
      </trkpt>
      <trkpt lat="45.13701" lon="6.61998">
        <ele>2245</ele>
        <time>2021-07-14T17:47:04Z</time>
      </trkpt>
      <trkpt lat="45.13692" lon="6.61999">
        <ele>2248</ele>
        <time>2021-07-14T17:47:18Z</time>
      </trkpt>
      <trkpt lat="45.13686" lon="6.61999">
        <ele>2246</ele>
        <time>2021-07-14T17:47:30Z</time>
      </trkpt>
      <trkpt lat="45.13682" lon="6.62001">
        <ele>2249</ele>
        <time>2021-07-14T17:47:35Z</time>
      </trkpt>
      <trkpt lat="45.13678" lon="6.62">
        <ele>2248</ele>
        <time>2021-07-14T17:47:40Z</time>
      </trkpt>
      <trkpt lat="45.13674" lon="6.61998">
        <ele>2250</ele>
        <time>2021-07-14T17:47:50Z</time>
      </trkpt>
      <trkpt lat="45.13667" lon="6.61993">
        <ele>2252</ele>
        <time>2021-07-14T17:48:02Z</time>
      </trkpt>
      <trkpt lat="45.1366" lon="6.61995">
        <ele>2256</ele>
        <time>2021-07-14T17:48:13Z</time>
      </trkpt>
      <trkpt lat="45.13652" lon="6.61998">
        <ele>2257</ele>
        <time>2021-07-14T17:48:23Z</time>
      </trkpt>
      <trkpt lat="45.13648" lon="6.62001">
        <ele>2257</ele>
        <time>2021-07-14T17:48:35Z</time>
      </trkpt>
      <trkpt lat="45.13642" lon="6.62004">
        <ele>2254</ele>
        <time>2021-07-14T17:48:45Z</time>
      </trkpt>
      <trkpt lat="45.13637" lon="6.62005">
        <ele>2256</ele>
        <time>2021-07-14T17:48:56Z</time>
      </trkpt>
      <trkpt lat="45.13633" lon="6.62015">
        <ele>2259</ele>
        <time>2021-07-14T17:49:08Z</time>
      </trkpt>
      <trkpt lat="45.13613" lon="6.62016">
        <ele>2265</ele>
        <time>2021-07-14T17:49:44Z</time>
      </trkpt>
      <trkpt lat="45.13604" lon="6.62026">
        <ele>2267</ele>
        <time>2021-07-14T17:49:59Z</time>
      </trkpt>
      <trkpt lat="45.13598" lon="6.62029">
        <ele>2268</ele>
        <time>2021-07-14T17:50:06Z</time>
      </trkpt>
      <trkpt lat="45.13595" lon="6.62032">
        <ele>2268</ele>
        <time>2021-07-14T17:50:11Z</time>
      </trkpt>
      <trkpt lat="45.13592" lon="6.62033">
        <ele>2269</ele>
        <time>2021-07-14T17:50:16Z</time>
      </trkpt>
      <trkpt lat="45.13587" lon="6.62033">
        <ele>2269</ele>
        <time>2021-07-14T17:50:21Z</time>
      </trkpt>
      <trkpt lat="45.13581" lon="6.62033">
        <ele>2270</ele>
        <time>2021-07-14T17:50:29Z</time>
      </trkpt>
      <trkpt lat="45.13576" lon="6.62033">
        <ele>2271</ele>
        <time>2021-07-14T17:50:35Z</time>
      </trkpt>
      <trkpt lat="45.13565" lon="6.62024">
        <ele>2272</ele>
        <time>2021-07-14T17:50:49Z</time>
      </trkpt>
      <trkpt lat="45.13559" lon="6.62021">
        <ele>2272</ele>
        <time>2021-07-14T17:50:55Z</time>
      </trkpt>
      <trkpt lat="45.13547" lon="6.62017">
        <ele>2273</ele>
        <time>2021-07-14T17:51:14Z</time>
      </trkpt>
      <trkpt lat="45.13544" lon="6.62013">
        <ele>2273</ele>
        <time>2021-07-14T17:51:18Z</time>
      </trkpt>
      <trkpt lat="45.1354" lon="6.62011">
        <ele>2273</ele>
        <time>2021-07-14T17:51:22Z</time>
      </trkpt>
      <trkpt lat="45.13535" lon="6.62009">
        <ele>2273</ele>
        <time>2021-07-14T17:51:29Z</time>
      </trkpt>
      <trkpt lat="45.13529" lon="6.62007">
        <ele>2274</ele>
        <time>2021-07-14T17:51:37Z</time>
      </trkpt>
      <trkpt lat="45.13524" lon="6.62004">
        <ele>2274</ele>
        <time>2021-07-14T17:51:41Z</time>
      </trkpt>
      <trkpt lat="45.1352" lon="6.62002">
        <ele>2274</ele>
        <time>2021-07-14T17:51:44Z</time>
      </trkpt>
      <trkpt lat="45.13517" lon="6.61995">
        <ele>2274</ele>
        <time>2021-07-14T17:51:49Z</time>
      </trkpt>
      <trkpt lat="45.13509" lon="6.61991">
        <ele>2275</ele>
        <time>2021-07-14T17:52:00Z</time>
      </trkpt>
      <trkpt lat="45.13499" lon="6.61986">
        <ele>2276</ele>
        <time>2021-07-14T17:52:14Z</time>
      </trkpt>
      <trkpt lat="45.13488" lon="6.61986">
        <ele>2277</ele>
        <time>2021-07-14T17:52:26Z</time>
      </trkpt>
      <trkpt lat="45.13483" lon="6.61985">
        <ele>2278</ele>
        <time>2021-07-14T17:52:32Z</time>
      </trkpt>
      <trkpt lat="45.13475" lon="6.61984">
        <ele>2279</ele>
        <time>2021-07-14T17:52:45Z</time>
      </trkpt>
      <trkpt lat="45.13474" lon="6.61986">
        <ele>2283</ele>
        <time>2021-07-14T17:54:21Z</time>
      </trkpt>
      <trkpt lat="45.13465" lon="6.61982">
        <ele>2284</ele>
        <time>2021-07-14T17:55:01Z</time>
      </trkpt>
      <trkpt lat="45.13459" lon="6.61982">
        <ele>2283</ele>
        <time>2021-07-14T17:55:05Z</time>
      </trkpt>
      <trkpt lat="45.13454" lon="6.61982">
        <ele>2283</ele>
        <time>2021-07-14T17:55:10Z</time>
      </trkpt>
      <trkpt lat="45.13448" lon="6.6198">
        <ele>2285</ele>
        <time>2021-07-14T17:55:15Z</time>
      </trkpt>
      <trkpt lat="45.13444" lon="6.61979">
        <ele>2285</ele>
        <time>2021-07-14T17:55:18Z</time>
      </trkpt>
      <trkpt lat="45.1344" lon="6.61978">
        <ele>2285</ele>
        <time>2021-07-14T17:55:21Z</time>
      </trkpt>
      <trkpt lat="45.13434" lon="6.61974">
        <ele>2285</ele>
        <time>2021-07-14T17:55:28Z</time>
      </trkpt>
      <trkpt lat="45.13428" lon="6.6197">
        <ele>2286</ele>
        <time>2021-07-14T17:55:34Z</time>
      </trkpt>
      <trkpt lat="45.13424" lon="6.61965">
        <ele>2286</ele>
        <time>2021-07-14T17:55:39Z</time>
      </trkpt>
      <trkpt lat="45.13415" lon="6.6196">
        <ele>2287</ele>
        <time>2021-07-14T17:55:51Z</time>
      </trkpt>
      <trkpt lat="45.13413" lon="6.61952">
        <ele>2289</ele>
        <time>2021-07-14T17:55:57Z</time>
      </trkpt>
      <trkpt lat="45.13411" lon="6.61935">
        <ele>2291</ele>
        <time>2021-07-14T17:56:10Z</time>
      </trkpt>
      <trkpt lat="45.1341" lon="6.61929">
        <ele>2292</ele>
        <time>2021-07-14T17:56:14Z</time>
      </trkpt>
      <trkpt lat="45.13409" lon="6.61919">
        <ele>2294</ele>
        <time>2021-07-14T17:56:23Z</time>
      </trkpt>
      <trkpt lat="45.13408" lon="6.61912">
        <ele>2293</ele>
        <time>2021-07-14T17:56:29Z</time>
      </trkpt>
      <trkpt lat="45.13403" lon="6.61907">
        <ele>2292</ele>
        <time>2021-07-14T17:56:36Z</time>
      </trkpt>
      <trkpt lat="45.134" lon="6.61901">
        <ele>2292</ele>
        <time>2021-07-14T17:56:39Z</time>
      </trkpt>
      <trkpt lat="45.13397" lon="6.61897">
        <ele>2292</ele>
        <time>2021-07-14T17:56:42Z</time>
      </trkpt>
      <trkpt lat="45.13394" lon="6.61894">
        <ele>2292</ele>
        <time>2021-07-14T17:56:45Z</time>
      </trkpt>
      <trkpt lat="45.13388" lon="6.61889">
        <ele>2291</ele>
        <time>2021-07-14T17:56:51Z</time>
      </trkpt>
      <trkpt lat="45.13385" lon="6.61885">
        <ele>2291</ele>
        <time>2021-07-14T17:56:54Z</time>
      </trkpt>
      <trkpt lat="45.13382" lon="6.6188">
        <ele>2291</ele>
        <time>2021-07-14T17:56:59Z</time>
      </trkpt>
      <trkpt lat="45.13377" lon="6.61875">
        <ele>2291</ele>
        <time>2021-07-14T17:57:05Z</time>
      </trkpt>
      <trkpt lat="45.13366" lon="6.61868">
        <ele>2291</ele>
        <time>2021-07-14T17:57:14Z</time>
      </trkpt>
      <trkpt lat="45.1336" lon="6.61863">
        <ele>2290</ele>
        <time>2021-07-14T17:57:19Z</time>
      </trkpt>
      <trkpt lat="45.13339" lon="6.61858">
        <ele>2289</ele>
        <time>2021-07-14T17:57:38Z</time>
      </trkpt>
      <trkpt lat="45.13333" lon="6.61859">
        <ele>2289</ele>
        <time>2021-07-14T17:57:43Z</time>
      </trkpt>
      <trkpt lat="45.13327" lon="6.61858">
        <ele>2289</ele>
        <time>2021-07-14T17:57:48Z</time>
      </trkpt>
      <trkpt lat="45.13322" lon="6.61856">
        <ele>2288</ele>
        <time>2021-07-14T17:57:53Z</time>
      </trkpt>
      <trkpt lat="45.13317" lon="6.61854">
        <ele>2288</ele>
        <time>2021-07-14T17:57:57Z</time>
      </trkpt>
      <trkpt lat="45.13311" lon="6.61851">
        <ele>2288</ele>
        <time>2021-07-14T17:58:01Z</time>
      </trkpt>
      <trkpt lat="45.13307" lon="6.61845">
        <ele>2288</ele>
        <time>2021-07-14T17:58:07Z</time>
      </trkpt>
      <trkpt lat="45.13301" lon="6.61836">
        <ele>2288</ele>
        <time>2021-07-14T17:58:18Z</time>
      </trkpt>
      <trkpt lat="45.13294" lon="6.61835">
        <ele>2288</ele>
        <time>2021-07-14T17:58:23Z</time>
      </trkpt>
      <trkpt lat="45.1329" lon="6.61831">
        <ele>2288</ele>
        <time>2021-07-14T17:58:28Z</time>
      </trkpt>
      <trkpt lat="45.13283" lon="6.61827">
        <ele>2289</ele>
        <time>2021-07-14T17:58:37Z</time>
      </trkpt>
      <trkpt lat="45.13278" lon="6.61823">
        <ele>2288</ele>
        <time>2021-07-14T17:58:41Z</time>
      </trkpt>
      <trkpt lat="45.13271" lon="6.61813">
        <ele>2288</ele>
        <time>2021-07-14T17:58:49Z</time>
      </trkpt>
      <trkpt lat="45.13264" lon="6.61809">
        <ele>2289</ele>
        <time>2021-07-14T17:58:54Z</time>
      </trkpt>
      <trkpt lat="45.1326" lon="6.61805">
        <ele>2288</ele>
        <time>2021-07-14T17:58:58Z</time>
      </trkpt>
      <trkpt lat="45.13255" lon="6.61801">
        <ele>2288</ele>
        <time>2021-07-14T17:59:03Z</time>
      </trkpt>
      <trkpt lat="45.13243" lon="6.61788">
        <ele>2288</ele>
        <time>2021-07-14T17:59:16Z</time>
      </trkpt>
      <trkpt lat="45.13238" lon="6.61783">
        <ele>2287</ele>
        <time>2021-07-14T17:59:21Z</time>
      </trkpt>
      <trkpt lat="45.1323" lon="6.61774">
        <ele>2287</ele>
        <time>2021-07-14T17:59:31Z</time>
      </trkpt>
      <trkpt lat="45.13226" lon="6.61768">
        <ele>2289</ele>
        <time>2021-07-14T17:59:36Z</time>
      </trkpt>
      <trkpt lat="45.13221" lon="6.61762">
        <ele>2287</ele>
        <time>2021-07-14T17:59:43Z</time>
      </trkpt>
      <trkpt lat="45.13202" lon="6.61751">
        <ele>2288</ele>
        <time>2021-07-14T18:00:01Z</time>
      </trkpt>
      <trkpt lat="45.13185" lon="6.6173">
        <ele>2288</ele>
        <time>2021-07-14T18:00:19Z</time>
      </trkpt>
      <trkpt lat="45.13178" lon="6.61727">
        <ele>2287</ele>
        <time>2021-07-14T18:00:27Z</time>
      </trkpt>
      <trkpt lat="45.13173" lon="6.61721">
        <ele>2288</ele>
        <time>2021-07-14T18:00:33Z</time>
      </trkpt>
      <trkpt lat="45.13162" lon="6.61712">
        <ele>2288</ele>
        <time>2021-07-14T18:00:43Z</time>
      </trkpt>
      <trkpt lat="45.13146" lon="6.61694">
        <ele>2287</ele>
        <time>2021-07-14T18:01:02Z</time>
      </trkpt>
      <trkpt lat="45.13141" lon="6.61691">
        <ele>2287</ele>
        <time>2021-07-14T18:01:10Z</time>
      </trkpt>
      <trkpt lat="45.13135" lon="6.61687">
        <ele>2287</ele>
        <time>2021-07-14T18:01:15Z</time>
      </trkpt>
      <trkpt lat="45.13131" lon="6.61679">
        <ele>2286</ele>
        <time>2021-07-14T18:01:22Z</time>
      </trkpt>
      <trkpt lat="45.13123" lon="6.61673">
        <ele>2286</ele>
        <time>2021-07-14T18:01:29Z</time>
      </trkpt>
      <trkpt lat="45.13118" lon="6.61668">
        <ele>2284</ele>
        <time>2021-07-14T18:01:34Z</time>
      </trkpt>
      <trkpt lat="45.13114" lon="6.61662">
        <ele>2283</ele>
        <time>2021-07-14T18:01:38Z</time>
      </trkpt>
      <trkpt lat="45.13109" lon="6.6166">
        <ele>2284</ele>
        <time>2021-07-14T18:01:43Z</time>
      </trkpt>
      <trkpt lat="45.131" lon="6.61646">
        <ele>2282</ele>
        <time>2021-07-14T18:01:52Z</time>
      </trkpt>
      <trkpt lat="45.13092" lon="6.61632">
        <ele>2283</ele>
        <time>2021-07-14T18:02:04Z</time>
      </trkpt>
      <trkpt lat="45.13085" lon="6.61618">
        <ele>2282</ele>
        <time>2021-07-14T18:02:14Z</time>
      </trkpt>
      <trkpt lat="45.1308" lon="6.61613">
        <ele>2280</ele>
        <time>2021-07-14T18:02:18Z</time>
      </trkpt>
      <trkpt lat="45.13075" lon="6.61608">
        <ele>2281</ele>
        <time>2021-07-14T18:02:24Z</time>
      </trkpt>
      <trkpt lat="45.13069" lon="6.61604">
        <ele>2280</ele>
        <time>2021-07-14T18:02:28Z</time>
      </trkpt>
      <trkpt lat="45.13064" lon="6.616">
        <ele>2281</ele>
        <time>2021-07-14T18:02:34Z</time>
      </trkpt>
      <trkpt lat="45.13057" lon="6.61594">
        <ele>2280</ele>
        <time>2021-07-14T18:02:42Z</time>
      </trkpt>
      <trkpt lat="45.13047" lon="6.61587">
        <ele>2281</ele>
        <time>2021-07-14T18:02:54Z</time>
      </trkpt>
      <trkpt lat="45.13041" lon="6.6158">
        <ele>2280</ele>
        <time>2021-07-14T18:03:01Z</time>
      </trkpt>
      <trkpt lat="45.13036" lon="6.61576">
        <ele>2280</ele>
        <time>2021-07-14T18:03:05Z</time>
      </trkpt>
      <trkpt lat="45.13031" lon="6.61574">
        <ele>2280</ele>
        <time>2021-07-14T18:03:09Z</time>
      </trkpt>
      <trkpt lat="45.13022" lon="6.61573">
        <ele>2280</ele>
        <time>2021-07-14T18:03:18Z</time>
      </trkpt>
      <trkpt lat="45.13017" lon="6.61574">
        <ele>2280</ele>
        <time>2021-07-14T18:03:22Z</time>
      </trkpt>
      <trkpt lat="45.13011" lon="6.61575">
        <ele>2282</ele>
        <time>2021-07-14T18:03:28Z</time>
      </trkpt>
      <trkpt lat="45.13004" lon="6.61574">
        <ele>2281</ele>
        <time>2021-07-14T18:03:36Z</time>
      </trkpt>
      <trkpt lat="45.12997" lon="6.61569">
        <ele>2281</ele>
        <time>2021-07-14T18:03:43Z</time>
      </trkpt>
      <trkpt lat="45.1298" lon="6.6156">
        <ele>2283</ele>
        <time>2021-07-14T18:04:03Z</time>
      </trkpt>
      <trkpt lat="45.12974" lon="6.61558">
        <ele>2283</ele>
        <time>2021-07-14T18:04:08Z</time>
      </trkpt>
      <trkpt lat="45.12969" lon="6.61552">
        <ele>2284</ele>
        <time>2021-07-14T18:04:13Z</time>
      </trkpt>
      <trkpt lat="45.12963" lon="6.61549">
        <ele>2283</ele>
        <time>2021-07-14T18:04:18Z</time>
      </trkpt>
      <trkpt lat="45.12952" lon="6.61545">
        <ele>2282</ele>
        <time>2021-07-14T18:04:27Z</time>
      </trkpt>
      <trkpt lat="45.12933" lon="6.61538">
        <ele>2283</ele>
        <time>2021-07-14T18:04:47Z</time>
      </trkpt>
      <trkpt lat="45.12928" lon="6.61533">
        <ele>2282</ele>
        <time>2021-07-14T18:04:53Z</time>
      </trkpt>
      <trkpt lat="45.12925" lon="6.61527">
        <ele>2284</ele>
        <time>2021-07-14T18:04:58Z</time>
      </trkpt>
      <trkpt lat="45.1292" lon="6.61522">
        <ele>2283</ele>
        <time>2021-07-14T18:05:04Z</time>
      </trkpt>
      <trkpt lat="45.12913" lon="6.61512">
        <ele>2284</ele>
        <time>2021-07-14T18:05:14Z</time>
      </trkpt>
      <trkpt lat="45.12903" lon="6.61498">
        <ele>2285</ele>
        <time>2021-07-14T18:05:26Z</time>
      </trkpt>
      <trkpt lat="45.12899" lon="6.61491">
        <ele>2287</ele>
        <time>2021-07-14T18:05:35Z</time>
      </trkpt>
      <trkpt lat="45.12894" lon="6.61487">
        <ele>2286</ele>
        <time>2021-07-14T18:05:39Z</time>
      </trkpt>
      <trkpt lat="45.12889" lon="6.61484">
        <ele>2285</ele>
        <time>2021-07-14T18:05:44Z</time>
      </trkpt>
      <trkpt lat="45.12883" lon="6.61483">
        <ele>2287</ele>
        <time>2021-07-14T18:05:49Z</time>
      </trkpt>
      <trkpt lat="45.1287" lon="6.61481">
        <ele>2285</ele>
        <time>2021-07-14T18:06:01Z</time>
      </trkpt>
      <trkpt lat="45.12862" lon="6.61479">
        <ele>2285</ele>
        <time>2021-07-14T18:06:10Z</time>
      </trkpt>
      <trkpt lat="45.12855" lon="6.61476">
        <ele>2287</ele>
        <time>2021-07-14T18:06:18Z</time>
      </trkpt>
      <trkpt lat="45.12851" lon="6.61471">
        <ele>2288</ele>
        <time>2021-07-14T18:06:23Z</time>
      </trkpt>
      <trkpt lat="45.12845" lon="6.61463">
        <ele>2287</ele>
        <time>2021-07-14T18:06:30Z</time>
      </trkpt>
      <trkpt lat="45.12839" lon="6.61457">
        <ele>2289</ele>
        <time>2021-07-14T18:06:38Z</time>
      </trkpt>
      <trkpt lat="45.12832" lon="6.61451">
        <ele>2289</ele>
        <time>2021-07-14T18:06:47Z</time>
      </trkpt>
      <trkpt lat="45.12823" lon="6.61446">
        <ele>2289</ele>
        <time>2021-07-14T18:06:56Z</time>
      </trkpt>
      <trkpt lat="45.12819" lon="6.61441">
        <ele>2289</ele>
        <time>2021-07-14T18:07:01Z</time>
      </trkpt>
      <trkpt lat="45.12812" lon="6.61435">
        <ele>2287</ele>
        <time>2021-07-14T18:07:10Z</time>
      </trkpt>
      <trkpt lat="45.12797" lon="6.6142">
        <ele>2287</ele>
        <time>2021-07-14T18:07:28Z</time>
      </trkpt>
      <trkpt lat="45.12793" lon="6.61414">
        <ele>2288</ele>
        <time>2021-07-14T18:07:34Z</time>
      </trkpt>
      <trkpt lat="45.1279" lon="6.61407">
        <ele>2288</ele>
        <time>2021-07-14T18:07:39Z</time>
      </trkpt>
      <trkpt lat="45.12785" lon="6.61402">
        <ele>2288</ele>
        <time>2021-07-14T18:07:44Z</time>
      </trkpt>
      <trkpt lat="45.1278" lon="6.61397">
        <ele>2287</ele>
        <time>2021-07-14T18:07:49Z</time>
      </trkpt>
      <trkpt lat="45.12776" lon="6.6139">
        <ele>2288</ele>
        <time>2021-07-14T18:07:55Z</time>
      </trkpt>
      <trkpt lat="45.12771" lon="6.61381">
        <ele>2288</ele>
        <time>2021-07-14T18:08:03Z</time>
      </trkpt>
      <trkpt lat="45.12767" lon="6.61375">
        <ele>2289</ele>
        <time>2021-07-14T18:08:09Z</time>
      </trkpt>
      <trkpt lat="45.12763" lon="6.61369">
        <ele>2290</ele>
        <time>2021-07-14T18:08:14Z</time>
      </trkpt>
      <trkpt lat="45.1276" lon="6.61362">
        <ele>2290</ele>
        <time>2021-07-14T18:08:18Z</time>
      </trkpt>
      <trkpt lat="45.12756" lon="6.61357">
        <ele>2289</ele>
        <time>2021-07-14T18:08:23Z</time>
      </trkpt>
      <trkpt lat="45.12746" lon="6.61344">
        <ele>2292</ele>
        <time>2021-07-14T18:08:35Z</time>
      </trkpt>
      <trkpt lat="45.12743" lon="6.61338">
        <ele>2292</ele>
        <time>2021-07-14T18:08:41Z</time>
      </trkpt>
      <trkpt lat="45.12738" lon="6.61335">
        <ele>2292</ele>
        <time>2021-07-14T18:08:47Z</time>
      </trkpt>
      <trkpt lat="45.12735" lon="6.61332">
        <ele>2291</ele>
        <time>2021-07-14T18:08:51Z</time>
      </trkpt>
      <trkpt lat="45.12726" lon="6.61318">
        <ele>2294</ele>
        <time>2021-07-14T18:09:04Z</time>
      </trkpt>
      <trkpt lat="45.12725" lon="6.61313">
        <ele>2294</ele>
        <time>2021-07-14T18:09:08Z</time>
      </trkpt>
      <trkpt lat="45.12721" lon="6.61304">
        <ele>2294</ele>
        <time>2021-07-14T18:09:15Z</time>
      </trkpt>
      <trkpt lat="45.12713" lon="6.61295">
        <ele>2296</ele>
        <time>2021-07-14T18:09:29Z</time>
      </trkpt>
      <trkpt lat="45.12708" lon="6.61287">
        <ele>2297</ele>
        <time>2021-07-14T18:09:41Z</time>
      </trkpt>
      <trkpt lat="45.12703" lon="6.61282">
        <ele>2295</ele>
        <time>2021-07-14T18:09:48Z</time>
      </trkpt>
      <trkpt lat="45.12694" lon="6.61273">
        <ele>2298</ele>
        <time>2021-07-14T18:10:00Z</time>
      </trkpt>
      <trkpt lat="45.1269" lon="6.61271">
        <ele>2298</ele>
        <time>2021-07-14T18:10:04Z</time>
      </trkpt>
      <trkpt lat="45.12687" lon="6.61269">
        <ele>2299</ele>
        <time>2021-07-14T18:10:07Z</time>
      </trkpt>
      <trkpt lat="45.12683" lon="6.61261">
        <ele>2299</ele>
        <time>2021-07-14T18:10:15Z</time>
      </trkpt>
      <trkpt lat="45.12673" lon="6.61249">
        <ele>2302</ele>
        <time>2021-07-14T18:10:32Z</time>
      </trkpt>
      <trkpt lat="45.1267" lon="6.61242">
        <ele>2303</ele>
        <time>2021-07-14T18:10:46Z</time>
      </trkpt>
      <trkpt lat="45.12666" lon="6.61233">
        <ele>2306</ele>
        <time>2021-07-14T18:11:03Z</time>
      </trkpt>
      <trkpt lat="45.12662" lon="6.61224">
        <ele>2307</ele>
        <time>2021-07-14T18:11:15Z</time>
      </trkpt>
      <trkpt lat="45.12658" lon="6.61214">
        <ele>2309</ele>
        <time>2021-07-14T18:11:33Z</time>
      </trkpt>
      <trkpt lat="45.12658" lon="6.61205">
        <ele>2309</ele>
        <time>2021-07-14T18:11:45Z</time>
      </trkpt>
      <trkpt lat="45.12656" lon="6.61196">
        <ele>2312</ele>
        <time>2021-07-14T18:11:57Z</time>
      </trkpt>
      <trkpt lat="45.12651" lon="6.61183">
        <ele>2314</ele>
        <time>2021-07-14T18:12:11Z</time>
      </trkpt>
      <trkpt lat="45.12646" lon="6.61173">
        <ele>2317</ele>
        <time>2021-07-14T18:12:23Z</time>
      </trkpt>
      <trkpt lat="45.12647" lon="6.61161">
        <ele>2315</ele>
        <time>2021-07-14T18:12:35Z</time>
      </trkpt>
      <trkpt lat="45.12647" lon="6.61155">
        <ele>2316</ele>
        <time>2021-07-14T18:12:39Z</time>
      </trkpt>
      <trkpt lat="45.12642" lon="6.61153">
        <ele>2316</ele>
        <time>2021-07-14T18:12:46Z</time>
      </trkpt>
      <trkpt lat="45.12637" lon="6.61148">
        <ele>2318</ele>
        <time>2021-07-14T18:12:58Z</time>
      </trkpt>
      <trkpt lat="45.12629" lon="6.61143">
        <ele>2324</ele>
        <time>2021-07-14T18:13:11Z</time>
      </trkpt>
      <trkpt lat="45.12619" lon="6.61138">
        <ele>2321</ele>
        <time>2021-07-14T18:13:23Z</time>
      </trkpt>
      <trkpt lat="45.12613" lon="6.61133">
        <ele>2323</ele>
        <time>2021-07-14T18:13:33Z</time>
      </trkpt>
      <trkpt lat="45.12606" lon="6.61135">
        <ele>2325</ele>
        <time>2021-07-14T18:13:45Z</time>
      </trkpt>
      <trkpt lat="45.12601" lon="6.61131">
        <ele>2327</ele>
        <time>2021-07-14T18:13:58Z</time>
      </trkpt>
      <trkpt lat="45.12594" lon="6.61123">
        <ele>2329</ele>
        <time>2021-07-14T18:14:10Z</time>
      </trkpt>
      <trkpt lat="45.12587" lon="6.61118">
        <ele>2329</ele>
        <time>2021-07-14T18:14:22Z</time>
      </trkpt>
      <trkpt lat="45.1258" lon="6.6112">
        <ele>2329</ele>
        <time>2021-07-14T18:14:34Z</time>
      </trkpt>
      <trkpt lat="45.12574" lon="6.61118">
        <ele>2336</ele>
        <time>2021-07-14T18:14:46Z</time>
      </trkpt>
      <trkpt lat="45.12567" lon="6.61114">
        <ele>2337</ele>
        <time>2021-07-14T18:14:59Z</time>
      </trkpt>
      <trkpt lat="45.12563" lon="6.61114">
        <ele>2338</ele>
        <time>2021-07-14T18:15:04Z</time>
      </trkpt>
      <trkpt lat="45.12558" lon="6.61112">
        <ele>2336</ele>
        <time>2021-07-14T18:15:16Z</time>
      </trkpt>
      <trkpt lat="45.12551" lon="6.61115">
        <ele>2338</ele>
        <time>2021-07-14T18:15:29Z</time>
      </trkpt>
      <trkpt lat="45.12547" lon="6.61116">
        <ele>2340</ele>
        <time>2021-07-14T18:15:41Z</time>
      </trkpt>
      <trkpt lat="45.12543" lon="6.61119">
        <ele>2342</ele>
        <time>2021-07-14T18:16:05Z</time>
      </trkpt>
      <trkpt lat="45.12539" lon="6.61117">
        <ele>2344</ele>
        <time>2021-07-14T18:16:11Z</time>
      </trkpt>
      <trkpt lat="45.12531" lon="6.61122">
        <ele>2344</ele>
        <time>2021-07-14T18:16:29Z</time>
      </trkpt>
      <trkpt lat="45.12524" lon="6.61127">
        <ele>2346</ele>
        <time>2021-07-14T18:16:40Z</time>
      </trkpt>
      <trkpt lat="45.12521" lon="6.61135">
        <ele>2351</ele>
        <time>2021-07-14T18:16:55Z</time>
      </trkpt>
      <trkpt lat="45.12514" lon="6.61142">
        <ele>2351</ele>
        <time>2021-07-14T18:17:06Z</time>
      </trkpt>
      <trkpt lat="45.12508" lon="6.61143">
        <ele>2351</ele>
        <time>2021-07-14T18:17:13Z</time>
      </trkpt>
      <trkpt lat="45.12502" lon="6.61142">
        <ele>2351</ele>
        <time>2021-07-14T18:17:20Z</time>
      </trkpt>
      <trkpt lat="45.12495" lon="6.61141">
        <ele>2353</ele>
        <time>2021-07-14T18:17:28Z</time>
      </trkpt>
      <trkpt lat="45.12492" lon="6.61139">
        <ele>2353</ele>
        <time>2021-07-14T18:17:34Z</time>
      </trkpt>
      <trkpt lat="45.12487" lon="6.61141">
        <ele>2355</ele>
        <time>2021-07-14T18:17:46Z</time>
      </trkpt>
      <trkpt lat="45.12476" lon="6.61145">
        <ele>2358</ele>
        <time>2021-07-14T18:18:04Z</time>
      </trkpt>
      <trkpt lat="45.1247" lon="6.61142">
        <ele>2361</ele>
        <time>2021-07-14T18:18:23Z</time>
      </trkpt>
      <trkpt lat="45.12464" lon="6.61147">
        <ele>2364</ele>
        <time>2021-07-14T18:18:41Z</time>
      </trkpt>
      <trkpt lat="45.1246" lon="6.61137">
        <ele>2365</ele>
        <time>2021-07-14T18:18:59Z</time>
      </trkpt>
      <trkpt lat="45.12446" lon="6.6113">
        <ele>2367</ele>
        <time>2021-07-14T18:19:25Z</time>
      </trkpt>
      <trkpt lat="45.12434" lon="6.61115">
        <ele>2373</ele>
        <time>2021-07-14T18:20:01Z</time>
      </trkpt>
      <trkpt lat="45.12429" lon="6.61108">
        <ele>2373</ele>
        <time>2021-07-14T18:20:13Z</time>
      </trkpt>
      <trkpt lat="45.12423" lon="6.61111">
        <ele>2377</ele>
        <time>2021-07-14T18:20:25Z</time>
      </trkpt>
      <trkpt lat="45.12415" lon="6.61106">
        <ele>2375</ele>
        <time>2021-07-14T18:20:43Z</time>
      </trkpt>
      <trkpt lat="45.12411" lon="6.61096">
        <ele>2377</ele>
        <time>2021-07-14T18:20:56Z</time>
      </trkpt>
      <trkpt lat="45.12406" lon="6.61092">
        <ele>2381</ele>
        <time>2021-07-14T18:21:09Z</time>
      </trkpt>
      <trkpt lat="45.12407" lon="6.61083">
        <ele>2383</ele>
        <time>2021-07-14T18:21:21Z</time>
      </trkpt>
      <trkpt lat="45.12402" lon="6.61074">
        <ele>2383</ele>
        <time>2021-07-14T18:21:40Z</time>
      </trkpt>
      <trkpt lat="45.12398" lon="6.61068">
        <ele>2387</ele>
        <time>2021-07-14T18:22:04Z</time>
      </trkpt>
      <trkpt lat="45.1239" lon="6.61066">
        <ele>2389</ele>
        <time>2021-07-14T18:22:22Z</time>
      </trkpt>
      <trkpt lat="45.12385" lon="6.61042">
        <ele>2394</ele>
        <time>2021-07-14T18:23:05Z</time>
      </trkpt>
      <trkpt lat="45.12379" lon="6.61039">
        <ele>2396</ele>
        <time>2021-07-14T18:23:17Z</time>
      </trkpt>
      <trkpt lat="45.12371" lon="6.61018">
        <ele>2403</ele>
        <time>2021-07-14T18:23:47Z</time>
      </trkpt>
      <trkpt lat="45.12369" lon="6.61009">
        <ele>2404</ele>
        <time>2021-07-14T18:24:02Z</time>
      </trkpt>
      <trkpt lat="45.12371" lon="6.61011">
        <ele>2401</ele>
        <time>2021-07-14T18:28:10Z</time>
      </trkpt>
      <trkpt lat="45.12366" lon="6.61002">
        <ele>2401</ele>
        <time>2021-07-14T18:28:28Z</time>
      </trkpt>
      <trkpt lat="45.12359" lon="6.60993">
        <ele>2401</ele>
        <time>2021-07-14T18:28:40Z</time>
      </trkpt>
      <trkpt lat="45.12353" lon="6.60988">
        <ele>2400</ele>
        <time>2021-07-14T18:28:47Z</time>
      </trkpt>
      <trkpt lat="45.12339" lon="6.60972">
        <ele>2401</ele>
        <time>2021-07-14T18:29:04Z</time>
      </trkpt>
      <trkpt lat="45.12333" lon="6.60966">
        <ele>2403</ele>
        <time>2021-07-14T18:29:11Z</time>
      </trkpt>
      <trkpt lat="45.12326" lon="6.60963">
        <ele>2403</ele>
        <time>2021-07-14T18:29:19Z</time>
      </trkpt>
      <trkpt lat="45.12317" lon="6.6096">
        <ele>2403</ele>
        <time>2021-07-14T18:29:31Z</time>
      </trkpt>
      <trkpt lat="45.12303" lon="6.60952">
        <ele>2404</ele>
        <time>2021-07-14T18:29:59Z</time>
      </trkpt>
      <trkpt lat="45.12295" lon="6.60931">
        <ele>2407</ele>
        <time>2021-07-14T18:30:16Z</time>
      </trkpt>
      <trkpt lat="45.12293" lon="6.60924">
        <ele>2407</ele>
        <time>2021-07-14T18:30:22Z</time>
      </trkpt>
      <trkpt lat="45.12287" lon="6.60908">
        <ele>2410</ele>
        <time>2021-07-14T18:30:38Z</time>
      </trkpt>
      <trkpt lat="45.12285" lon="6.60891">
        <ele>2411</ele>
        <time>2021-07-14T18:30:54Z</time>
      </trkpt>
      <trkpt lat="45.1228" lon="6.60886">
        <ele>2412</ele>
        <time>2021-07-14T18:31:02Z</time>
      </trkpt>
      <trkpt lat="45.12273" lon="6.60866">
        <ele>2415</ele>
        <time>2021-07-14T18:31:23Z</time>
      </trkpt>
      <trkpt lat="45.12264" lon="6.60857">
        <ele>2416</ele>
        <time>2021-07-14T18:31:40Z</time>
      </trkpt>
      <trkpt lat="45.12259" lon="6.60852">
        <ele>2415</ele>
        <time>2021-07-14T18:31:46Z</time>
      </trkpt>
      <trkpt lat="45.12255" lon="6.60845">
        <ele>2415</ele>
        <time>2021-07-14T18:31:54Z</time>
      </trkpt>
      <trkpt lat="45.12252" lon="6.60831">
        <ele>2417</ele>
        <time>2021-07-14T18:32:06Z</time>
      </trkpt>
      <trkpt lat="45.12248" lon="6.60819">
        <ele>2418</ele>
        <time>2021-07-14T18:32:18Z</time>
      </trkpt>
      <trkpt lat="45.12243" lon="6.60809">
        <ele>2421</ele>
        <time>2021-07-14T18:32:36Z</time>
      </trkpt>
      <trkpt lat="45.12235" lon="6.60798">
        <ele>2422</ele>
        <time>2021-07-14T18:32:48Z</time>
      </trkpt>
      <trkpt lat="45.12231" lon="6.60793">
        <ele>2422</ele>
        <time>2021-07-14T18:32:52Z</time>
      </trkpt>
      <trkpt lat="45.1222" lon="6.60786">
        <ele>2421</ele>
        <time>2021-07-14T18:33:05Z</time>
      </trkpt>
      <trkpt lat="45.12217" lon="6.60778">
        <ele>2421</ele>
        <time>2021-07-14T18:33:10Z</time>
      </trkpt>
      <trkpt lat="45.12213" lon="6.60771">
        <ele>2421</ele>
        <time>2021-07-14T18:33:15Z</time>
      </trkpt>
      <trkpt lat="45.1221" lon="6.60764">
        <ele>2421</ele>
        <time>2021-07-14T18:33:19Z</time>
      </trkpt>
      <trkpt lat="45.12204" lon="6.60758">
        <ele>2421</ele>
        <time>2021-07-14T18:33:24Z</time>
      </trkpt>
      <trkpt lat="45.12201" lon="6.60751">
        <ele>2421</ele>
        <time>2021-07-14T18:33:28Z</time>
      </trkpt>
      <trkpt lat="45.12194" lon="6.60744">
        <ele>2420</ele>
        <time>2021-07-14T18:33:38Z</time>
      </trkpt>
      <trkpt lat="45.12186" lon="6.6072">
        <ele>2418</ele>
        <time>2021-07-14T18:33:56Z</time>
      </trkpt>
      <trkpt lat="45.12187" lon="6.6071">
        <ele>2420</ele>
        <time>2021-07-14T18:34:08Z</time>
      </trkpt>
      <trkpt lat="45.12191" lon="6.6071">
        <ele>2419</ele>
        <time>2021-07-14T18:34:13Z</time>
      </trkpt>
      <trkpt lat="45.12196" lon="6.60708">
        <ele>2422</ele>
        <time>2021-07-14T18:34:25Z</time>
      </trkpt>
      <trkpt lat="45.12203" lon="6.60699">
        <ele>2423</ele>
        <time>2021-07-14T18:34:38Z</time>
      </trkpt>
      <trkpt lat="45.12206" lon="6.60695">
        <ele>2423</ele>
        <time>2021-07-14T18:34:44Z</time>
      </trkpt>
      <trkpt lat="45.12209" lon="6.60685">
        <ele>2426</ele>
        <time>2021-07-14T18:35:20Z</time>
      </trkpt>
      <trkpt lat="45.12212" lon="6.60675">
        <ele>2427</ele>
        <time>2021-07-14T18:35:32Z</time>
      </trkpt>
      <trkpt lat="45.12211" lon="6.60665">
        <ele>2426</ele>
        <time>2021-07-14T18:35:38Z</time>
      </trkpt>
      <trkpt lat="45.12211" lon="6.60653">
        <ele>2427</ele>
        <time>2021-07-14T18:35:48Z</time>
      </trkpt>
      <trkpt lat="45.12209" lon="6.60646">
        <ele>2427</ele>
        <time>2021-07-14T18:35:54Z</time>
      </trkpt>
      <trkpt lat="45.12208" lon="6.60636">
        <ele>2428</ele>
        <time>2021-07-14T18:36:02Z</time>
      </trkpt>
      <trkpt lat="45.12206" lon="6.60627">
        <ele>2426</ele>
        <time>2021-07-14T18:36:10Z</time>
      </trkpt>
      <trkpt lat="45.12202" lon="6.60622">
        <ele>2428</ele>
        <time>2021-07-14T18:36:15Z</time>
      </trkpt>
      <trkpt lat="45.12199" lon="6.60614">
        <ele>2428</ele>
        <time>2021-07-14T18:36:20Z</time>
      </trkpt>
      <trkpt lat="45.12195" lon="6.60594">
        <ele>2429</ele>
        <time>2021-07-14T18:36:35Z</time>
      </trkpt>
      <trkpt lat="45.12192" lon="6.60586">
        <ele>2428</ele>
        <time>2021-07-14T18:36:40Z</time>
      </trkpt>
      <trkpt lat="45.1219" lon="6.60573">
        <ele>2430</ele>
        <time>2021-07-14T18:36:54Z</time>
      </trkpt>
      <trkpt lat="45.12189" lon="6.6055">
        <ele>2432</ele>
        <time>2021-07-14T18:37:15Z</time>
      </trkpt>
      <trkpt lat="45.12191" lon="6.60541">
        <ele>2432</ele>
        <time>2021-07-14T18:37:27Z</time>
      </trkpt>
      <trkpt lat="45.12199" lon="6.6052">
        <ele>2435</ele>
        <time>2021-07-14T18:37:51Z</time>
      </trkpt>
      <trkpt lat="45.12199" lon="6.60512">
        <ele>2435</ele>
        <time>2021-07-14T18:38:01Z</time>
      </trkpt>
      <trkpt lat="45.12197" lon="6.60503">
        <ele>2437</ele>
        <time>2021-07-14T18:38:13Z</time>
      </trkpt>
      <trkpt lat="45.12198" lon="6.60488">
        <ele>2437</ele>
        <time>2021-07-14T18:38:25Z</time>
      </trkpt>
      <trkpt lat="45.12192" lon="6.60475">
        <ele>2439</ele>
        <time>2021-07-14T18:38:36Z</time>
      </trkpt>
      <trkpt lat="45.12188" lon="6.60464">
        <ele>2439</ele>
        <time>2021-07-14T18:38:47Z</time>
      </trkpt>
      <trkpt lat="45.12191" lon="6.60457">
        <ele>2441</ele>
        <time>2021-07-14T18:39:04Z</time>
      </trkpt>
      <trkpt lat="45.12194" lon="6.60438">
        <ele>2442</ele>
        <time>2021-07-14T18:39:18Z</time>
      </trkpt>
      <trkpt lat="45.12197" lon="6.60429">
        <ele>2442</ele>
        <time>2021-07-14T18:39:31Z</time>
      </trkpt>
      <trkpt lat="45.12202" lon="6.60426">
        <ele>2441</ele>
        <time>2021-07-14T18:39:37Z</time>
      </trkpt>
      <trkpt lat="45.12207" lon="6.60415">
        <ele>2440</ele>
        <time>2021-07-14T18:39:47Z</time>
      </trkpt>
      <trkpt lat="45.12213" lon="6.60405">
        <ele>2443</ele>
        <time>2021-07-14T18:40:01Z</time>
      </trkpt>
      <trkpt lat="45.12221" lon="6.604">
        <ele>2443</ele>
        <time>2021-07-14T18:40:13Z</time>
      </trkpt>
      <trkpt lat="45.12227" lon="6.60398">
        <ele>2443</ele>
        <time>2021-07-14T18:40:18Z</time>
      </trkpt>
      <trkpt lat="45.12234" lon="6.60395">
        <ele>2445</ele>
        <time>2021-07-14T18:40:32Z</time>
      </trkpt>
      <trkpt lat="45.12241" lon="6.60389">
        <ele>2446</ele>
        <time>2021-07-14T18:40:50Z</time>
      </trkpt>
      <trkpt lat="45.12245" lon="6.60383">
        <ele>2447</ele>
        <time>2021-07-14T18:40:56Z</time>
      </trkpt>
      <trkpt lat="45.1225" lon="6.60375">
        <ele>2449</ele>
        <time>2021-07-14T18:41:10Z</time>
      </trkpt>
      <trkpt lat="45.12254" lon="6.6037">
        <ele>2450</ele>
        <time>2021-07-14T18:41:22Z</time>
      </trkpt>
      <trkpt lat="45.12257" lon="6.60363">
        <ele>2450</ele>
        <time>2021-07-14T18:41:34Z</time>
      </trkpt>
      <trkpt lat="45.12261" lon="6.60356">
        <ele>2452</ele>
        <time>2021-07-14T18:41:46Z</time>
      </trkpt>
      <trkpt lat="45.12271" lon="6.60349">
        <ele>2451</ele>
        <time>2021-07-14T18:41:59Z</time>
      </trkpt>
      <trkpt lat="45.12276" lon="6.60338">
        <ele>2453</ele>
        <time>2021-07-14T18:42:11Z</time>
      </trkpt>
      <trkpt lat="45.12282" lon="6.60328">
        <ele>2453</ele>
        <time>2021-07-14T18:42:22Z</time>
      </trkpt>
      <trkpt lat="45.12286" lon="6.60321">
        <ele>2454</ele>
        <time>2021-07-14T18:42:34Z</time>
      </trkpt>
      <trkpt lat="45.12291" lon="6.60317">
        <ele>2456</ele>
        <time>2021-07-14T18:42:46Z</time>
      </trkpt>
      <trkpt lat="45.12296" lon="6.60312">
        <ele>2458</ele>
        <time>2021-07-14T18:43:10Z</time>
      </trkpt>
      <trkpt lat="45.12301" lon="6.60314">
        <ele>2462</ele>
        <time>2021-07-14T18:43:29Z</time>
      </trkpt>
      <trkpt lat="45.12306" lon="6.60304">
        <ele>2463</ele>
        <time>2021-07-14T18:43:53Z</time>
      </trkpt>
      <trkpt lat="45.12306" lon="6.60293">
        <ele>2467</ele>
        <time>2021-07-14T18:44:17Z</time>
      </trkpt>
      <trkpt lat="45.12308" lon="6.60285">
        <ele>2467</ele>
        <time>2021-07-14T18:44:24Z</time>
      </trkpt>
      <trkpt lat="45.1231" lon="6.60288">
        <ele>2469</ele>
        <time>2021-07-14T18:45:26Z</time>
      </trkpt>
      <trkpt lat="45.12316" lon="6.60283">
        <ele>2467</ele>
        <time>2021-07-14T18:46:07Z</time>
      </trkpt>
      <trkpt lat="45.12322" lon="6.60282">
        <ele>2469</ele>
        <time>2021-07-14T18:46:14Z</time>
      </trkpt>
      <trkpt lat="45.12328" lon="6.60279">
        <ele>2468</ele>
        <time>2021-07-14T18:46:20Z</time>
      </trkpt>
      <trkpt lat="45.12333" lon="6.60275">
        <ele>2467</ele>
        <time>2021-07-14T18:46:29Z</time>
      </trkpt>
      <trkpt lat="45.12335" lon="6.60266">
        <ele>2468</ele>
        <time>2021-07-14T18:46:35Z</time>
      </trkpt>
      <trkpt lat="45.12333" lon="6.60257">
        <ele>2469</ele>
        <time>2021-07-14T18:46:41Z</time>
      </trkpt>
      <trkpt lat="45.12333" lon="6.60249">
        <ele>2469</ele>
        <time>2021-07-14T18:46:46Z</time>
      </trkpt>
      <trkpt lat="45.12337" lon="6.60241">
        <ele>2469</ele>
        <time>2021-07-14T18:46:55Z</time>
      </trkpt>
      <trkpt lat="45.12341" lon="6.60227">
        <ele>2470</ele>
        <time>2021-07-14T18:47:06Z</time>
      </trkpt>
      <trkpt lat="45.12339" lon="6.60219">
        <ele>2470</ele>
        <time>2021-07-14T18:47:11Z</time>
      </trkpt>
      <trkpt lat="45.1234" lon="6.60209">
        <ele>2470</ele>
        <time>2021-07-14T18:47:17Z</time>
      </trkpt>
      <trkpt lat="45.12343" lon="6.602">
        <ele>2469</ele>
        <time>2021-07-14T18:47:22Z</time>
      </trkpt>
      <trkpt lat="45.12344" lon="6.60193">
        <ele>2468</ele>
        <time>2021-07-14T18:47:28Z</time>
      </trkpt>
      <trkpt lat="45.12343" lon="6.60184">
        <ele>2466</ele>
        <time>2021-07-14T18:47:33Z</time>
      </trkpt>
      <trkpt lat="45.12341" lon="6.60176">
        <ele>2466</ele>
        <time>2021-07-14T18:47:38Z</time>
      </trkpt>
      <trkpt lat="45.12342" lon="6.60168">
        <ele>2466</ele>
        <time>2021-07-14T18:47:44Z</time>
      </trkpt>
      <trkpt lat="45.12346" lon="6.60156">
        <ele>2463</ele>
        <time>2021-07-14T18:47:57Z</time>
      </trkpt>
      <trkpt lat="45.12345" lon="6.60147">
        <ele>2461</ele>
        <time>2021-07-14T18:48:04Z</time>
      </trkpt>
      <trkpt lat="45.12342" lon="6.6014">
        <ele>2463</ele>
        <time>2021-07-14T18:48:10Z</time>
      </trkpt>
      <trkpt lat="45.12338" lon="6.60129">
        <ele>2463</ele>
        <time>2021-07-14T18:48:24Z</time>
      </trkpt>
      <trkpt lat="45.12334" lon="6.60118">
        <ele>2464</ele>
        <time>2021-07-14T18:48:36Z</time>
      </trkpt>
      <trkpt lat="45.12334" lon="6.60096">
        <ele>2469</ele>
        <time>2021-07-14T18:49:18Z</time>
      </trkpt>
      <trkpt lat="45.12331" lon="6.6009">
        <ele>2472</ele>
        <time>2021-07-14T18:49:36Z</time>
      </trkpt>
      <trkpt lat="45.12336" lon="6.6008">
        <ele>2476</ele>
        <time>2021-07-14T18:50:00Z</time>
      </trkpt>
      <trkpt lat="45.1234" lon="6.60071">
        <ele>2477</ele>
        <time>2021-07-14T18:50:24Z</time>
      </trkpt>
      <trkpt lat="45.12343" lon="6.60054">
        <ele>2483</ele>
        <time>2021-07-14T18:51:06Z</time>
      </trkpt>
      <trkpt lat="45.12343" lon="6.60045">
        <ele>2486</ele>
        <time>2021-07-14T18:51:42Z</time>
      </trkpt>
      <trkpt lat="45.12344" lon="6.60036">
        <ele>2488</ele>
        <time>2021-07-14T18:51:54Z</time>
      </trkpt>
      <trkpt lat="45.12344" lon="6.60028">
        <ele>2490</ele>
        <time>2021-07-14T18:52:10Z</time>
      </trkpt>
      <trkpt lat="45.12343" lon="6.60019">
        <ele>2493</ele>
        <time>2021-07-14T18:52:30Z</time>
      </trkpt>
      <trkpt lat="45.12342" lon="6.60011">
        <ele>2494</ele>
        <time>2021-07-14T18:52:37Z</time>
      </trkpt>
      <trkpt lat="45.12337" lon="6.60004">
        <ele>2494</ele>
        <time>2021-07-14T18:52:48Z</time>
      </trkpt>
      <trkpt lat="45.12336" lon="6.59992">
        <ele>2495</ele>
        <time>2021-07-14T18:53:06Z</time>
      </trkpt>
      <trkpt lat="45.12339" lon="6.59983">
        <ele>2497</ele>
        <time>2021-07-14T18:53:18Z</time>
      </trkpt>
      <trkpt lat="45.12389" lon="6.59979">
        <ele>2498</ele>
        <time>2021-07-14T18:54:34Z</time>
      </trkpt>
    </trkseg>
  </trk>
  <rte>
    <name><![CDATA[4 avr. 2019 à 23:11:12]]></name>
    <cmt><![CDATA[4 avr. 2019 à 23:11:12]]></cmt>
    <desc><![CDATA[{DC1}Heure de fin	: 
Durée totale	: 0h00:00
Moyenne globale	: -
Pente moyenne	: 0.00 %
Aire incluse	: 7.4932 ha
Détails par segments
distance  | durée    | vit.moy. | vit.max. | déniv. + | déniv -
   km     | hh:mn:ss |   km/h   |   km/h   |    m     |    m
     0.81 | 00:00:00 |      0.0 |      0.0 |        0 |        0{DC2}]]></desc>
      <rtept lat="45.60077" lon="6.18221">
        <ele>1608.6</ele>
      </rtept>
      <rtept lat="45.59468" lon="6.1822">
        <ele>1760.9</ele>
      </rtept>
      <rtept lat="45.59468" lon="6.1822">
        <ele>1760.9</ele>
      </rtept>
    </rte>
  <rte>
    <name><![CDATA[10 févr. 2019 à 15:16:12]]></name>
    <cmt><![CDATA[10 févr. 2019 à 15:16:12]]></cmt>
    <desc><![CDATA[{DC1}Heure de fin	: 00:09:21
Durée totale	: -17690439h43:48
Moyenne globale	: -
Pente moyenne	: 7.00 %
Aire incluse	: 221.0936 ha
Détails par segments
distance  | durée    | vit.moy. | vit.max. | déniv. + | déniv -
   km     | hh:mn:ss |   km/h   |   km/h   |    m     |    m
     7.48 | 00:00:00 |      0.0 |      0.0 |        0 |        0{DC2}]]></desc>
      <rtept lat="45.55203" lon="5.93805">
        <ele>376</ele>
      </rtept>
      <rtept lat="45.55177" lon="5.93873">
        <ele>369</ele>
      </rtept>
      <rtept lat="45.55176" lon="5.93942">
        <ele>367</ele>
      </rtept>
      <rtept lat="45.55105" lon="5.93942">
        <ele>367</ele>
      </rtept>
      <rtept lat="45.54993" lon="5.93908">
        <ele>371</ele>
      </rtept>
      <rtept lat="45.54929" lon="5.94099">
        <ele>370</ele>
      </rtept>
      <rtept lat="45.54908" lon="5.94204">
        <ele>367</ele>
      </rtept>
      <rtept lat="45.54991" lon="5.94287">
        <ele>365</ele>
      </rtept>
      <rtept lat="45.5506" lon="5.94384">
        <ele>361</ele>
      </rtept>
      <rtept lat="45.55147" lon="5.94384">
        <ele>357</ele>
      </rtept>
      <rtept lat="45.55129" lon="5.94607">
        <ele>358</ele>
      </rtept>
      <rtept lat="45.55029" lon="5.94809">
        <ele>355</ele>
      </rtept>
      <rtept lat="45.54884" lon="5.94886">
        <ele>346</ele>
      </rtept>
      <rtept lat="45.5477" lon="5.94931">
        <ele>342</ele>
      </rtept>
      <rtept lat="45.5468" lon="5.95004">
        <ele>339</ele>
      </rtept>
      <rtept lat="45.54596" lon="5.95133">
        <ele>340</ele>
      </rtept>
      <rtept lat="45.54446" lon="5.95195">
        <ele>343</ele>
      </rtept>
      <rtept lat="45.543" lon="5.95262">
        <ele>344</ele>
      </rtept>
      <rtept lat="45.54156" lon="5.95212">
        <ele>337</ele>
      </rtept>
      <rtept lat="45.54041" lon="5.95204">
        <ele>338</ele>
      </rtept>
      <rtept lat="45.53917" lon="5.95141">
        <ele>343</ele>
      </rtept>
      <rtept lat="45.53844" lon="5.95135">
        <ele>347</ele>
      </rtept>
      <rtept lat="45.53765" lon="5.9503">
        <ele>349</ele>
      </rtept>
      <rtept lat="45.5381" lon="5.94993">
        <ele>352</ele>
      </rtept>
      <rtept lat="45.53781" lon="5.94901">
        <ele>358</ele>
      </rtept>
      <rtept lat="45.53711" lon="5.94845">
        <ele>365</ele>
      </rtept>
      <rtept lat="45.53702" lon="5.94764">
        <ele>369</ele>
      </rtept>
      <rtept lat="45.53817" lon="5.94807">
        <ele>376</ele>
      </rtept>
      <rtept lat="45.53865" lon="5.94633">
        <ele>389</ele>
      </rtept>
      <rtept lat="45.53778" lon="5.94491">
        <ele>408</ele>
      </rtept>
      <rtept lat="45.53757" lon="5.94371">
        <ele>425</ele>
      </rtept>
      <rtept lat="45.53775" lon="5.94279">
        <ele>434</ele>
      </rtept>
      <rtept lat="45.53726" lon="5.94227">
        <ele>442</ele>
      </rtept>
      <rtept lat="45.53572" lon="5.94146">
        <ele>468</ele>
      </rtept>
      <rtept lat="45.53664" lon="5.94039">
        <ele>483</ele>
      </rtept>
      <rtept lat="45.53532" lon="5.93983">
        <ele>505</ele>
      </rtept>
      <rtept lat="45.53416" lon="5.93985">
        <ele>516</ele>
      </rtept>
      <rtept lat="45.5355" lon="5.93869">
        <ele>532</ele>
      </rtept>
      <rtept lat="45.5359" lon="5.93845">
        <ele>537</ele>
      </rtept>
      <rtept lat="45.5355" lon="5.93802">
        <ele>544</ele>
      </rtept>
      <rtept lat="45.53724" lon="5.93554">
        <ele>587</ele>
      </rtept>
      <rtept lat="45.53691" lon="5.93339">
        <ele>592</ele>
      </rtept>
      <rtept lat="45.5376" lon="5.93178">
        <ele>575</ele>
      </rtept>
      <rtept lat="45.53843" lon="5.93069">
        <ele>555</ele>
      </rtept>
      <rtept lat="45.53939" lon="5.93157">
        <ele>541</ele>
      </rtept>
      <rtept lat="45.54068" lon="5.93234">
        <ele>522</ele>
      </rtept>
      <rtept lat="45.54219" lon="5.93247">
        <ele>514</ele>
      </rtept>
      <rtept lat="45.54355" lon="5.93232">
        <ele>512</ele>
      </rtept>
      <rtept lat="45.54489" lon="5.9326">
        <ele>508</ele>
      </rtept>
      <rtept lat="45.54636" lon="5.93249">
        <ele>510</ele>
      </rtept>
      <rtept lat="45.54758" lon="5.93249">
        <ele>510</ele>
      </rtept>
      <rtept lat="45.54818" lon="5.93298">
        <ele>507</ele>
      </rtept>
      <rtept lat="45.54796" lon="5.93418">
        <ele>496</ele>
      </rtept>
      <rtept lat="45.5491" lon="5.93433">
        <ele>483</ele>
      </rtept>
      <rtept lat="45.55126" lon="5.9341">
        <ele>463</ele>
      </rtept>
      <rtept lat="45.55256" lon="5.93453">
        <ele>444</ele>
      </rtept>
      <rtept lat="45.55329" lon="5.93558">
        <ele>430</ele>
      </rtept>
      <rtept lat="45.55222" lon="5.93642">
        <ele>415</ele>
      </rtept>
      <rtept lat="45.55195" lon="5.93811">
        <ele>375</ele>
      </rtept>
    </rte>
  <rte>
    <name><![CDATA[10 févr. 2019 à 15:15:48]]></name>
    <cmt><![CDATA[10 févr. 2019 à 15:15:48]]></cmt>
    <desc><![CDATA[{DC1}Heure de fin	: 00:09:21
Durée totale	: -17690439h44:12
Moyenne globale	: -
Pente moyenne	: nan %
Aire incluse	: 0.0000 ha
Détails par segments
distance  | durée    | vit.moy. | vit.max. | déniv. + | déniv -
   km     | hh:mn:ss |   km/h   |   km/h   |    m     |    m
     0.00 | 00:00:00 |      0.0 |      0.0 |        0 |        0{DC2}]]></desc>
      <rtept lat="45.5175" lon="5.93483">
        <ele>732.3</ele>
      </rtept>
    </rte>
  <rte>
    <name><![CDATA[10 févr. 2019 à 15:06:08]]></name>
    <cmt><![CDATA[10 févr. 2019 à 15:06:08]]></cmt>
    <desc><![CDATA[{DC1}Heure de fin	: 
Durée totale	: 0h00:00
Moyenne globale	: -
Pente moyenne	: 8.03 %
Aire incluse	: 204.0794 ha
Détails par segments
distance  | durée    | vit.moy. | vit.max. | déniv. + | déniv -
   km     | hh:mn:ss |   km/h   |   km/h   |    m     |    m
    12.88 | 00:00:00 |      0.0 |      0.0 |        0 |        0{DC2}]]></desc>
      <rtept lat="45.5509" lon="5.9394">
        <ele>368</ele>
      </rtept>
      <rtept lat="45.55217" lon="5.93791">
        <ele>377</ele>
      </rtept>
    </rte>
  <rte>
    <name><![CDATA[10 févr. 2019 à 14:22:06]]></name>
    <cmt><![CDATA[10 févr. 2019 à 14:22:06]]></cmt>
    <desc><![CDATA[{DC1}Heure de fin	: 00:09:21
Durée totale	: -17690438h37:54
Moyenne globale	: -
Pente moyenne	: 5.62 %
Aire incluse	: 5.7967 ha
Détails par segments
distance  | durée    | vit.moy. | vit.max. | déniv. + | déniv -
   km     | hh:mn:ss |   km/h   |   km/h   |    m     |    m
     3.30 | 00:00:00 |      0.0 |      0.0 |        0 |        0{DC2}]]></desc>
      <rtept lat="45.55169" lon="5.93089">
        <ele>415</ele>
      </rtept>
      <rtept lat="45.5518" lon="5.93905">
        <ele>366</ele>
      </rtept>
    </rte>
  <rte>
    <name><![CDATA[10 févr. 2019 à 09:50:45]]></name>
    <cmt><![CDATA[10 févr. 2019 à 09:50:45]]></cmt>
    <desc><![CDATA[{DC1}Heure de fin	: 00:09:21
Durée totale	: -17690433h09:14
Moyenne globale	: -
Pente moyenne	: 0.00 %
Aire incluse	: 50.7119 ha
Détails par segments
distance  | durée    | vit.moy. | vit.max. | déniv. + | déniv -
   km     | hh:mn:ss |   km/h   |   km/h   |    m     |    m
     4.33 | 00:00:00 |      0.0 |      0.0 |        0 |        0{DC2}]]></desc>
      <rtept lat="45.5503" lon="5.93918">
        <ele>373.6</ele>
      </rtept>
      <rtept lat="45.55191" lon="5.93893">
        <ele>366.7</ele>
      </rtept>
    </rte>
  <rte>
    <name><![CDATA[10 févr. 2019 à 09:07:08]]></name>
    <cmt><![CDATA[10 févr. 2019 à 09:07:08]]></cmt>
    <desc><![CDATA[{DC1}Heure de fin	: 00:09:21
Durée totale	: -17690433h52:52
Moyenne globale	: -
Pente moyenne	: nan %
Aire incluse	: 0.0000 ha
Détails par segments
distance  | durée    | vit.moy. | vit.max. | déniv. + | déniv -
   km     | hh:mn:ss |   km/h   |   km/h   |    m     |    m
     0.00 | 00:00:00 |      0.0 |      0.0 |        0 |        0{DC2}]]></desc>
      <rtept lat="45.55102" lon="5.93919">
        <ele>370.1</ele>
      </rtept>
    </rte>
  <rte>
    <name><![CDATA[10 févr. 2019 à 09:02:25]]></name>
    <cmt><![CDATA[10 févr. 2019 à 09:02:25]]></cmt>
    <desc><![CDATA[{DC1}Heure de fin	: 00:09:21
Durée totale	: -17690433h57:35
Moyenne globale	: -
Pente moyenne	: nan %
Aire incluse	: 0.0000 ha
Détails par segments
distance  | durée    | vit.moy. | vit.max. | déniv. + | déniv -
   km     | hh:mn:ss |   km/h   |   km/h   |    m     |    m
     0.00 | 00:00:00 |      0.0 |      0.0 |        0 |        0{DC2}]]></desc>
      <rtept lat="45.55207" lon="5.93813">
        <ele>375.2</ele>
      </rtept>
    </rte>
  <rte>
    <name><![CDATA[10 févr. 2019 à 09:00:27]]></name>
    <cmt><![CDATA[10 févr. 2019 à 09:00:27]]></cmt>
    <desc><![CDATA[{DC1}Heure de fin	: 00:09:21
Durée totale	: -17690433h59:32
Moyenne globale	: -
Pente moyenne	: nan %
Aire incluse	: 0.0000 ha
Détails par segments
distance  | durée    | vit.moy. | vit.max. | déniv. + | déniv -
   km     | hh:mn:ss |   km/h   |   km/h   |    m     |    m
     0.00 | 00:00:00 |      0.0 |      0.0 |        0 |        0{DC2}]]></desc>
      <rtept lat="45.55244" lon="5.93858">
        <ele>366.6</ele>
      </rtept>
    </rte>
</gpx>